sensor_id;sensor_type;location;lat;lon;timestamp;P1;durP1;ratioP1;P2;durP2;ratioP2
43519;SDS011;46848;51.980;5.918;2023-03-11T00:02:15;2.80;;;0.97;;
43519;SDS011;46848;51.980;5.918;2023-03-11T00:04:40;7.07;;;1.57;;
43519;SDS011;46848;51.980;5.918;2023-03-11T00:07:08;5.10;;;1.20;;
43519;SDS011;46848;51.980;5.918;2023-03-11T00:09:34;8.00;;;1.40;;
43519;SDS011;46848;51.980;5.918;2023-03-11T00:12:00;7.40;;;2.03;;
43519;SDS011;46848;51.980;5.918;2023-03-11T00:14:27;5.93;;;1.40;;
43519;SDS011;46848;51.980;5.918;2023-03-11T00:16:52;5.20;;;1.37;;
43519;SDS011;46848;51.980;5.918;2023-03-11T00:19:18;5.73;;;1.40;;
43519;SDS011;46848;51.980;5.918;2023-03-11T00:21:44;7.37;;;1.70;;
43519;SDS011;46848;51.980;5.918;2023-03-11T00:24:09;7.37;;;1.50;;
43519;SDS011;46848;51.980;5.918;2023-03-11T00:26:35;6.63;;;2.07;;
43519;SDS011;46848;51.980;5.918;2023-03-11T00:29:01;5.73;;;1.80;;
43519;SDS011;46848;51.980;5.918;2023-03-11T00:31:26;10.60;;;1.90;;
43519;SDS011;46848;51.980;5.918;2023-03-11T00:33:52;4.83;;;1.17;;
43519;SDS011;46848;51.980;5.918;2023-03-11T00:36:22;4.47;;;1.30;;
43519;SDS011;46848;51.980;5.918;2023-03-11T00:38:52;6.97;;;1.33;;
43519;SDS011;46848;51.980;5.918;2023-03-11T00:41:18;6.43;;;2.57;;
43519;SDS011;46848;51.980;5.918;2023-03-11T00:43:44;5.97;;;1.67;;
43519;SDS011;46848;51.980;5.918;2023-03-11T00:46:10;5.53;;;1.40;;
43519;SDS011;46848;51.980;5.918;2023-03-11T00:48:35;8.00;;;1.60;;
43519;SDS011;46848;51.980;5.918;2023-03-11T00:51:01;3.97;;;1.67;;
43519;SDS011;46848;51.980;5.918;2023-03-11T00:53:27;6.03;;;1.77;;
43519;SDS011;46848;51.980;5.918;2023-03-11T00:55:53;7.10;;;1.43;;
43519;SDS011;46848;51.980;5.918;2023-03-11T00:58:18;6.10;;;1.40;;
43519;SDS011;46848;51.980;5.918;2023-03-11T01:00:46;9.53;;;1.63;;
43519;SDS011;46848;51.980;5.918;2023-03-11T01:03:12;6.20;;;1.90;;
43519;SDS011;46848;51.980;5.918;2023-03-11T01:05:38;5.50;;;1.50;;
43519;SDS011;46848;51.980;5.918;2023-03-11T01:08:04;7.03;;;1.47;;
43519;SDS011;46848;51.980;5.918;2023-03-11T01:10:31;3.17;;;1.07;;
43519;SDS011;46848;51.980;5.918;2023-03-11T01:12:57;5.77;;;1.30;;
43519;SDS011;46848;51.980;5.918;2023-03-11T01:15:35;4.70;;;1.20;;
43519;SDS011;46848;51.980;5.918;2023-03-11T01:18:01;5.77;;;1.37;;
43519;SDS011;46848;51.980;5.918;2023-03-11T01:20:28;3.57;;;1.13;;
43519;SDS011;46848;51.980;5.918;2023-03-11T01:22:54;4.93;;;1.00;;
43519;SDS011;46848;51.980;5.918;2023-03-11T01:25:20;7.90;;;1.57;;
43519;SDS011;46848;51.980;5.918;2023-03-11T01:27:47;4.67;;;1.17;;
43519;SDS011;46848;51.980;5.918;2023-03-11T01:30:14;5.77;;;1.20;;
43519;SDS011;46848;51.980;5.918;2023-03-11T01:32:42;7.13;;;1.73;;
43519;SDS011;46848;51.980;5.918;2023-03-11T01:35:11;2.70;;;0.70;;
43519;SDS011;46848;51.980;5.918;2023-03-11T01:37:41;4.90;;;0.97;;
43519;SDS011;46848;51.980;5.918;2023-03-11T01:40:07;4.57;;;0.90;;
43519;SDS011;46848;51.980;5.918;2023-03-11T01:42:38;4.18;;;0.90;;
43519;SDS011;46848;51.980;5.918;2023-03-11T01:45:14;4.57;;;1.27;;
43519;SDS011;46848;51.980;5.918;2023-03-11T01:48:05;2.90;;;0.90;;
43519;SDS011;46848;51.980;5.918;2023-03-11T01:50:37;6.30;;;1.20;;
43519;SDS011;46848;51.980;5.918;2023-03-11T01:53:05;4.33;;;0.93;;
43519;SDS011;46848;51.980;5.918;2023-03-11T01:55:32;4.30;;;0.97;;
43519;SDS011;46848;51.980;5.918;2023-03-11T01:58:00;6.47;;;1.57;;
43519;SDS011;46848;51.980;5.918;2023-03-11T02:00:29;4.73;;;1.17;;
43519;SDS011;46848;51.980;5.918;2023-03-11T02:02:56;4.00;;;1.10;;
43519;SDS011;46848;51.980;5.918;2023-03-11T02:05:23;6.50;;;1.40;;
43519;SDS011;46848;51.980;5.918;2023-03-11T02:07:50;3.97;;;1.00;;
43519;SDS011;46848;51.980;5.918;2023-03-11T02:10:18;4.40;;;1.47;;
43519;SDS011;46848;51.980;5.918;2023-03-11T02:12:44;6.47;;;1.43;;
43519;SDS011;46848;51.980;5.918;2023-03-11T02:15:12;5.90;;;1.93;;
43519;SDS011;46848;51.980;5.918;2023-03-11T02:17:39;4.67;;;1.47;;
43519;SDS011;46848;51.980;5.918;2023-03-11T02:22:53;6.80;;;1.50;;
43519;SDS011;46848;51.980;5.918;2023-03-11T02:25:30;6.67;;;1.63;;
43519;SDS011;46848;51.980;5.918;2023-03-11T02:28:03;6.72;;;1.00;;
43519;SDS011;46848;51.980;5.918;2023-03-11T02:30:32;4.03;;;1.27;;
43519;SDS011;46848;51.980;5.918;2023-03-11T02:33:00;5.60;;;0.83;;
43519;SDS011;46848;51.980;5.918;2023-03-11T02:35:27;4.57;;;1.17;;
43519;SDS011;46848;51.980;5.918;2023-03-11T02:37:55;3.50;;;1.23;;
43519;SDS011;46848;51.980;5.918;2023-03-11T02:42:46;4.13;;;1.33;;
43519;SDS011;46848;51.980;5.918;2023-03-11T02:45:15;4.70;;;1.20;;
43519;SDS011;46848;51.980;5.918;2023-03-11T02:47:42;3.80;;;0.90;;
43519;SDS011;46848;51.980;5.918;2023-03-11T02:50:10;8.70;;;1.20;;
43519;SDS011;46848;51.980;5.918;2023-03-11T02:52:37;5.47;;;1.40;;
43519;SDS011;46848;51.980;5.918;2023-03-11T02:55:03;9.57;;;1.50;;
43519;SDS011;46848;51.980;5.918;2023-03-11T02:57:29;3.60;;;1.60;;
43519;SDS011;46848;51.980;5.918;2023-03-11T02:59:55;3.83;;;1.10;;
43519;SDS011;46848;51.980;5.918;2023-03-11T03:02:20;4.10;;;1.03;;
43519;SDS011;46848;51.980;5.918;2023-03-11T03:04:47;5.43;;;1.47;;
43519;SDS011;46848;51.980;5.918;2023-03-11T03:07:12;6.87;;;1.27;;
43519;SDS011;46848;51.980;5.918;2023-03-11T03:09:39;5.30;;;1.03;;
43519;SDS011;46848;51.980;5.918;2023-03-11T03:12:05;8.50;;;1.67;;
43519;SDS011;46848;51.980;5.918;2023-03-11T03:14:31;6.13;;;1.67;;
43519;SDS011;46848;51.980;5.918;2023-03-11T03:16:57;3.97;;;1.17;;
43519;SDS011;46848;51.980;5.918;2023-03-11T03:19:22;6.33;;;0.90;;
43519;SDS011;46848;51.980;5.918;2023-03-11T03:21:48;3.70;;;0.97;;
43519;SDS011;46848;51.980;5.918;2023-03-11T03:24:14;5.00;;;1.17;;
43519;SDS011;46848;51.980;5.918;2023-03-11T03:26:39;6.23;;;1.10;;
43519;SDS011;46848;51.980;5.918;2023-03-11T03:29:05;2.50;;;1.10;;
43519;SDS011;46848;51.980;5.918;2023-03-11T03:31:31;3.60;;;1.23;;
43519;SDS011;46848;51.980;5.918;2023-03-11T03:33:58;5.03;;;1.53;;
43519;SDS011;46848;51.980;5.918;2023-03-11T03:36:23;4.97;;;1.13;;
43519;SDS011;46848;51.980;5.918;2023-03-11T03:38:53;6.07;;;1.53;;
43519;SDS011;46848;51.980;5.918;2023-03-11T03:41:22;3.87;;;1.00;;
43519;SDS011;46848;51.980;5.918;2023-03-11T03:43:48;6.17;;;1.50;;
43519;SDS011;46848;51.980;5.918;2023-03-11T03:46:14;3.57;;;1.20;;
43519;SDS011;46848;51.980;5.918;2023-03-11T03:48:40;6.13;;;1.23;;
43519;SDS011;46848;51.980;5.918;2023-03-11T03:51:07;3.73;;;1.20;;
43519;SDS011;46848;51.980;5.918;2023-03-11T03:53:35;5.67;;;1.20;;
43519;SDS011;46848;51.980;5.918;2023-03-11T03:56:02;4.43;;;1.20;;
43519;SDS011;46848;51.980;5.918;2023-03-11T03:58:32;5.03;;;1.35;;
43519;SDS011;46848;51.980;5.918;2023-03-11T04:00:58;3.80;;;1.43;;
43519;SDS011;46848;51.980;5.918;2023-03-11T04:03:24;7.33;;;1.30;;
43519;SDS011;46848;51.980;5.918;2023-03-11T04:05:51;5.63;;;1.50;;
43519;SDS011;46848;51.980;5.918;2023-03-11T04:08:17;4.80;;;1.03;;
43519;SDS011;46848;51.980;5.918;2023-03-11T04:10:43;5.63;;;1.40;;
43519;SDS011;46848;51.980;5.918;2023-03-11T04:13:09;3.53;;;1.20;;
43519;SDS011;46848;51.980;5.918;2023-03-11T04:15:36;5.50;;;1.33;;
43519;SDS011;46848;51.980;5.918;2023-03-11T04:18:03;3.70;;;1.17;;
43519;SDS011;46848;51.980;5.918;2023-03-11T04:20:29;4.13;;;1.20;;
43519;SDS011;46848;51.980;5.918;2023-03-11T04:22:54;4.63;;;1.43;;
43519;SDS011;46848;51.980;5.918;2023-03-11T04:25:20;2.57;;;0.97;;
43519;SDS011;46848;51.980;5.918;2023-03-11T04:27:46;3.37;;;1.10;;
43519;SDS011;46848;51.980;5.918;2023-03-11T04:30:14;4.80;;;0.97;;
43519;SDS011;46848;51.980;5.918;2023-03-11T04:32:40;5.33;;;1.20;;
43519;SDS011;46848;51.980;5.918;2023-03-11T04:35:05;5.00;;;1.20;;
43519;SDS011;46848;51.980;5.918;2023-03-11T04:37:31;3.03;;;1.13;;
43519;SDS011;46848;51.980;5.918;2023-03-11T04:39:57;2.33;;;0.60;;
43519;SDS011;46848;51.980;5.918;2023-03-11T04:42:23;2.73;;;0.80;;
43519;SDS011;46848;51.980;5.918;2023-03-11T04:44:49;2.57;;;0.87;;
43519;SDS011;46848;51.980;5.918;2023-03-11T04:47:14;4.13;;;0.90;;
43519;SDS011;46848;51.980;5.918;2023-03-11T04:49:40;4.17;;;0.97;;
43519;SDS011;46848;51.980;5.918;2023-03-11T04:52:06;3.33;;;1.17;;
43519;SDS011;46848;51.980;5.918;2023-03-11T04:54:31;3.20;;;1.20;;
43519;SDS011;46848;51.980;5.918;2023-03-11T04:56:57;3.17;;;1.10;;
43519;SDS011;46848;51.980;5.918;2023-03-11T04:59:23;2.80;;;0.83;;
43519;SDS011;46848;51.980;5.918;2023-03-11T05:01:48;4.33;;;1.03;;
43519;SDS011;46848;51.980;5.918;2023-03-11T05:04:14;3.07;;;0.80;;
43519;SDS011;46848;51.980;5.918;2023-03-11T05:06:40;2.37;;;1.10;;
43519;SDS011;46848;51.980;5.918;2023-03-11T05:09:05;4.03;;;0.80;;
43519;SDS011;46848;51.980;5.918;2023-03-11T05:11:31;7.00;;;1.77;;
43519;SDS011;46848;51.980;5.918;2023-03-11T05:13:56;4.83;;;1.10;;
43519;SDS011;46848;51.980;5.918;2023-03-11T05:16:22;5.17;;;1.20;;
43519;SDS011;46848;51.980;5.918;2023-03-11T05:18:47;2.90;;;1.00;;
43519;SDS011;46848;51.980;5.918;2023-03-11T05:21:14;4.87;;;1.00;;
43519;SDS011;46848;51.980;5.918;2023-03-11T05:23:39;3.50;;;1.00;;
43519;SDS011;46848;51.980;5.918;2023-03-11T05:26:05;3.47;;;0.80;;
43519;SDS011;46848;51.980;5.918;2023-03-11T05:28:30;2.43;;;0.50;;
43519;SDS011;46848;51.980;5.918;2023-03-11T05:30:56;5.17;;;0.80;;
43519;SDS011;46848;51.980;5.918;2023-03-11T05:33:24;4.37;;;0.93;;
43519;SDS011;46848;51.980;5.918;2023-03-11T05:35:49;2.47;;;0.57;;
43519;SDS011;46848;51.980;5.918;2023-03-11T05:38:15;1.73;;;0.60;;
43519;SDS011;46848;51.980;5.918;2023-03-11T05:40:41;3.07;;;0.63;;
43519;SDS011;46848;51.980;5.918;2023-03-11T05:43:07;5.07;;;1.10;;
43519;SDS011;46848;51.980;5.918;2023-03-11T05:45:32;2.87;;;0.60;;
43519;SDS011;46848;51.980;5.918;2023-03-11T05:47:58;2.40;;;0.80;;
43519;SDS011;46848;51.980;5.918;2023-03-11T05:50:26;2.97;;;0.70;;
43519;SDS011;46848;51.980;5.918;2023-03-11T05:52:52;4.07;;;0.90;;
43519;SDS011;46848;51.980;5.918;2023-03-11T05:55:17;2.90;;;1.07;;
43519;SDS011;46848;51.980;5.918;2023-03-11T05:57:43;3.40;;;1.10;;
43519;SDS011;46848;51.980;5.918;2023-03-11T06:00:09;6.13;;;0.80;;
43519;SDS011;46848;51.980;5.918;2023-03-11T06:02:37;4.70;;;0.83;;
43519;SDS011;46848;51.980;5.918;2023-03-11T06:05:04;2.77;;;0.80;;
43519;SDS011;46848;51.980;5.918;2023-03-11T06:07:32;4.30;;;0.70;;
43519;SDS011;46848;51.980;5.918;2023-03-11T06:09:58;2.50;;;0.70;;
43519;SDS011;46848;51.980;5.918;2023-03-11T06:12:24;4.30;;;0.90;;
43519;SDS011;46848;51.980;5.918;2023-03-11T06:14:52;2.93;;;0.60;;
43519;SDS011;46848;51.980;5.918;2023-03-11T06:17:18;3.77;;;0.70;;
43519;SDS011;46848;51.980;5.918;2023-03-11T06:19:43;4.77;;;0.67;;
43519;SDS011;46848;51.980;5.918;2023-03-11T06:22:09;3.30;;;0.70;;
43519;SDS011;46848;51.980;5.918;2023-03-11T06:24:36;1.97;;;0.60;;
43519;SDS011;46848;51.980;5.918;2023-03-11T06:27:02;3.30;;;0.90;;
43519;SDS011;46848;51.980;5.918;2023-03-11T06:29:28;4.83;;;0.70;;
43519;SDS011;46848;51.980;5.918;2023-03-11T06:31:54;5.43;;;0.70;;
43519;SDS011;46848;51.980;5.918;2023-03-11T06:34:20;1.80;;;0.60;;
43519;SDS011;46848;51.980;5.918;2023-03-11T06:36:45;4.83;;;1.30;;
43519;SDS011;46848;51.980;5.918;2023-03-11T06:39:14;3.40;;;0.80;;
43519;SDS011;46848;51.980;5.918;2023-03-11T06:41:41;1.57;;;0.60;;
43519;SDS011;46848;51.980;5.918;2023-03-11T06:44:08;2.77;;;0.90;;
43519;SDS011;46848;51.980;5.918;2023-03-11T06:46:34;4.60;;;0.70;;
43519;SDS011;46848;51.980;5.918;2023-03-11T06:49:00;3.40;;;1.00;;
43519;SDS011;46848;51.980;5.918;2023-03-11T06:51:26;2.87;;;0.77;;
43519;SDS011;46848;51.980;5.918;2023-03-11T06:53:52;4.43;;;0.80;;
43519;SDS011;46848;51.980;5.918;2023-03-11T06:56:18;4.13;;;0.90;;
43519;SDS011;46848;51.980;5.918;2023-03-11T06:58:45;3.73;;;0.73;;
43519;SDS011;46848;51.980;5.918;2023-03-11T07:01:14;6.30;;;1.00;;
43519;SDS011;46848;51.980;5.918;2023-03-11T07:03:40;3.57;;;0.97;;
43519;SDS011;46848;51.980;5.918;2023-03-11T07:06:09;4.40;;;0.80;;
43519;SDS011;46848;51.980;5.918;2023-03-11T07:08:43;3.97;;;0.77;;
43519;SDS011;46848;51.980;5.918;2023-03-11T07:11:12;2.43;;;1.03;;
43519;SDS011;46848;51.980;5.918;2023-03-11T07:13:42;3.03;;;0.93;;
43519;SDS011;46848;51.980;5.918;2023-03-11T07:16:17;4.63;;;1.20;;
43519;SDS011;46848;51.980;5.918;2023-03-11T07:18:44;5.03;;;0.83;;
43519;SDS011;46848;51.980;5.918;2023-03-11T07:21:21;3.87;;;0.77;;
43519;SDS011;46848;51.980;5.918;2023-03-11T07:24:18;4.10;;;0.90;;
43519;SDS011;46848;51.980;5.918;2023-03-11T07:26:45;5.13;;;1.10;;
43519;SDS011;46848;51.980;5.918;2023-03-11T07:29:10;2.53;;;0.70;;
43519;SDS011;46848;51.980;5.918;2023-03-11T07:31:36;3.53;;;1.00;;
43519;SDS011;46848;51.980;5.918;2023-03-11T07:34:04;4.13;;;1.17;;
43519;SDS011;46848;51.980;5.918;2023-03-11T07:36:35;2.70;;;0.70;;
43519;SDS011;46848;51.980;5.918;2023-03-11T07:39:03;2.87;;;0.70;;
43519;SDS011;46848;51.980;5.918;2023-03-11T07:41:30;2.23;;;0.70;;
43519;SDS011;46848;51.980;5.918;2023-03-11T07:43:58;3.43;;;1.40;;
43519;SDS011;46848;51.980;5.918;2023-03-11T07:46:25;5.17;;;0.93;;
43519;SDS011;46848;51.980;5.918;2023-03-11T07:48:52;2.70;;;0.90;;
43519;SDS011;46848;51.980;5.918;2023-03-11T07:51:27;5.50;;;1.30;;
43519;SDS011;46848;51.980;5.918;2023-03-11T07:53:55;4.77;;;1.33;;
43519;SDS011;46848;51.980;5.918;2023-03-11T07:56:22;6.43;;;1.17;;
43519;SDS011;46848;51.980;5.918;2023-03-11T07:58:49;2.30;;;0.80;;
43519;SDS011;46848;51.980;5.918;2023-03-11T08:01:17;4.33;;;0.90;;
43519;SDS011;46848;51.980;5.918;2023-03-11T08:03:45;4.43;;;0.97;;
43519;SDS011;46848;51.980;5.918;2023-03-11T08:08:38;5.83;;;1.00;;
43519;SDS011;46848;51.980;5.918;2023-03-11T08:11:04;5.27;;;1.03;;
43519;SDS011;46848;51.980;5.918;2023-03-11T08:13:31;3.80;;;1.03;;
43519;SDS011;46848;51.980;5.918;2023-03-11T08:15:57;3.78;;;1.30;;
43519;SDS011;46848;51.980;5.918;2023-03-11T08:18:23;2.67;;;0.90;;
43519;SDS011;46848;51.980;5.918;2023-03-11T08:20:49;4.07;;;1.00;;
43519;SDS011;46848;51.980;5.918;2023-03-11T08:23:14;4.60;;;1.20;;
43519;SDS011;46848;51.980;5.918;2023-03-11T08:25:40;2.58;;;1.00;;
43519;SDS011;46848;51.980;5.918;2023-03-11T08:28:06;4.28;;;0.98;;
43519;SDS011;46848;51.980;5.918;2023-03-11T08:30:33;2.15;;;0.82;;
43519;SDS011;46848;51.980;5.918;2023-03-11T08:32:59;2.53;;;0.70;;
43519;SDS011;46848;51.980;5.918;2023-03-11T08:35:25;3.33;;;0.88;;
43519;SDS011;46848;51.980;5.918;2023-03-11T08:37:51;3.90;;;1.27;;
43519;SDS011;46848;51.980;5.918;2023-03-11T08:40:17;3.88;;;1.00;;
43519;SDS011;46848;51.980;5.918;2023-03-11T08:42:43;2.55;;;0.90;;
43519;SDS011;46848;51.980;5.918;2023-03-11T08:45:27;4.45;;;1.13;;
43519;SDS011;46848;51.980;5.918;2023-03-11T08:48:23;3.83;;;1.00;;
43519;SDS011;46848;51.980;5.918;2023-03-11T08:50:49;2.58;;;0.90;;
43519;SDS011;46848;51.980;5.918;2023-03-11T08:53:16;5.45;;;1.30;;
43519;SDS011;46848;51.980;5.918;2023-03-11T08:55:45;5.07;;;1.13;;
43519;SDS011;46848;51.980;5.918;2023-03-11T08:58:11;4.25;;;0.82;;
43519;SDS011;46848;51.980;5.918;2023-03-11T09:00:36;2.90;;;0.80;;
43519;SDS011;46848;51.980;5.918;2023-03-11T09:03:02;5.55;;;1.17;;
43519;SDS011;46848;51.980;5.918;2023-03-11T09:05:28;4.45;;;1.00;;
43519;SDS011;46848;51.980;5.918;2023-03-11T09:07:53;3.65;;;0.85;;
43519;SDS011;46848;51.980;5.918;2023-03-11T09:10:19;4.00;;;0.50;;
43519;SDS011;46848;51.980;5.918;2023-03-11T09:12:44;2.17;;;0.55;;
43519;SDS011;46848;51.980;5.918;2023-03-11T09:15:10;5.05;;;1.15;;
43519;SDS011;46848;51.980;5.918;2023-03-11T09:17:36;1.95;;;0.70;;
43519;SDS011;46848;51.980;5.918;2023-03-11T09:20:02;3.17;;;0.80;;
43519;SDS011;46848;51.980;5.918;2023-03-11T09:22:28;3.35;;;0.88;;
43519;SDS011;46848;51.980;5.918;2023-03-11T09:24:55;3.05;;;0.80;;
43519;SDS011;46848;51.980;5.918;2023-03-11T09:27:21;5.47;;;1.33;;
43519;SDS011;46848;51.980;5.918;2023-03-11T09:29:46;3.85;;;1.05;;
43519;SDS011;46848;51.980;5.918;2023-03-11T09:32:12;4.15;;;1.00;;
43519;SDS011;46848;51.980;5.918;2023-03-11T09:34:38;4.13;;;1.30;;
43519;SDS011;46848;51.980;5.918;2023-03-11T09:37:04;8.07;;;1.67;;
43519;SDS011;46848;51.980;5.918;2023-03-11T09:39:30;6.30;;;1.38;;
43519;SDS011;46848;51.980;5.918;2023-03-11T09:42:02;4.13;;;1.58;;
43519;SDS011;46848;51.980;5.918;2023-03-11T09:45:14;3.33;;;1.13;;
43519;SDS011;46848;51.980;5.918;2023-03-11T09:47:50;6.65;;;1.00;;
43519;SDS011;46848;51.980;5.918;2023-03-11T09:50:25;3.25;;;0.70;;
43519;SDS011;46848;51.980;5.918;2023-03-11T09:52:57;3.85;;;0.75;;
43519;SDS011;46848;51.980;5.918;2023-03-11T09:55:54;2.72;;;0.80;;
43519;SDS011;46848;51.980;5.918;2023-03-11T10:01:00;5.97;;;1.15;;
43519;SDS011;46848;51.980;5.918;2023-03-11T10:03:35;2.03;;;0.80;;
43519;SDS011;46848;51.980;5.918;2023-03-11T10:06:05;3.72;;;0.73;;
43519;SDS011;46848;51.980;5.918;2023-03-11T10:08:46;2.85;;;0.73;;
43519;SDS011;46848;51.980;5.918;2023-03-11T10:11:35;4.68;;;0.88;;
43519;SDS011;46848;51.980;5.918;2023-03-11T10:14:31;2.00;;;0.68;;
43519;SDS011;46848;51.980;5.918;2023-03-11T10:19:55;3.85;;;1.02;;
43519;SDS011;46848;51.980;5.918;2023-03-11T10:22:56;2.13;;;0.50;;
43519;SDS011;46848;51.980;5.918;2023-03-11T10:25:29;4.35;;;0.40;;
43519;SDS011;46848;51.980;5.918;2023-03-11T10:28:38;3.17;;;1.08;;
43519;SDS011;46848;51.980;5.918;2023-03-11T10:33:46;3.00;;;0.90;;
43519;SDS011;46848;51.980;5.918;2023-03-11T10:36:17;1.83;;;0.52;;
43519;SDS011;46848;51.980;5.918;2023-03-11T10:43:56;3.20;;;0.60;;
43519;SDS011;46848;51.980;5.918;2023-03-11T10:46:27;2.55;;;0.50;;
43519;SDS011;46848;51.980;5.918;2023-03-11T10:48:53;3.95;;;0.90;;
43519;SDS011;46848;51.980;5.918;2023-03-11T10:51:20;5.13;;;0.82;;
43519;SDS011;46848;51.980;5.918;2023-03-11T10:53:49;4.15;;;0.60;;
43519;SDS011;46848;51.980;5.918;2023-03-11T10:58:53;3.70;;;0.95;;
43519;SDS011;46848;51.980;5.918;2023-03-11T11:01:20;2.15;;;0.52;;
43519;SDS011;46848;51.980;5.918;2023-03-11T11:03:50;4.30;;;0.50;;
43519;SDS011;46848;51.980;5.918;2023-03-11T11:06:24;3.80;;;0.70;;
43519;SDS011;46848;51.980;5.918;2023-03-11T11:11:38;3.58;;;0.90;;
43519;SDS011;46848;51.980;5.918;2023-03-11T11:14:04;3.20;;;0.73;;
43519;SDS011;46848;51.980;5.918;2023-03-11T11:16:32;3.15;;;0.73;;
43519;SDS011;46848;51.980;5.918;2023-03-11T11:19:09;2.05;;;0.40;;
43519;SDS011;46848;51.980;5.918;2023-03-11T11:21:55;1.92;;;0.40;;
43519;SDS011;46848;51.980;5.918;2023-03-11T11:24:28;7.63;;;0.82;;
43519;SDS011;46848;51.980;5.918;2023-03-11T11:27:05;1.45;;;0.50;;
43519;SDS011;46848;51.980;5.918;2023-03-11T11:29:33;2.80;;;0.60;;
43519;SDS011;46848;51.980;5.918;2023-03-11T11:34:59;3.00;;;0.70;;
43519;SDS011;46848;51.980;5.918;2023-03-11T11:37:26;5.00;;;0.70;;
43519;SDS011;46848;51.980;5.918;2023-03-11T11:40:00;2.80;;;0.55;;
43519;SDS011;46848;51.980;5.918;2023-03-11T11:42:37;2.45;;;0.75;;
43519;SDS011;46848;51.980;5.918;2023-03-11T11:45:15;4.80;;;0.60;;
43519;SDS011;46848;51.980;5.918;2023-03-11T11:47:54;1.42;;;0.60;;
43519;SDS011;46848;51.980;5.918;2023-03-11T11:50:33;2.08;;;0.47;;
43519;SDS011;46848;51.980;5.918;2023-03-11T11:55:43;2.15;;;0.70;;
43519;SDS011;46848;51.980;5.918;2023-03-11T11:58:12;2.42;;;0.60;;
43519;SDS011;46848;51.980;5.918;2023-03-11T12:00:44;2.90;;;0.60;;
43519;SDS011;46848;51.980;5.918;2023-03-11T12:07:03;4.03;;;0.85;;
43519;SDS011;46848;51.980;5.918;2023-03-11T12:17:45;3.88;;;0.98;;
43519;SDS011;46848;51.980;5.918;2023-03-11T12:26:02;3.97;;;0.65;;
43519;SDS011;46848;51.980;5.918;2023-03-11T12:31:33;2.17;;;0.55;;
43519;SDS011;46848;51.980;5.918;2023-03-11T12:34:04;2.25;;;0.47;;
43519;SDS011;46848;51.980;5.918;2023-03-11T12:36:39;1.88;;;0.40;;
43519;SDS011;46848;51.980;5.918;2023-03-11T12:39:06;2.33;;;0.65;;
43519;SDS011;46848;51.980;5.918;2023-03-11T12:41:47;2.90;;;0.60;;
43519;SDS011;46848;51.980;5.918;2023-03-11T12:44:33;5.40;;;0.80;;
43519;SDS011;46848;51.980;5.918;2023-03-11T12:47:00;2.95;;;0.82;;
43519;SDS011;46848;51.980;5.918;2023-03-11T12:49:41;4.63;;;0.98;;
43519;SDS011;46848;51.980;5.918;2023-03-11T12:52:20;3.05;;;0.75;;
43519;SDS011;46848;51.980;5.918;2023-03-11T12:55:22;3.70;;;0.60;;
43519;SDS011;46848;51.980;5.918;2023-03-11T12:58:43;3.15;;;0.57;;
43519;SDS011;46848;51.980;5.918;2023-03-11T13:01:28;5.25;;;0.85;;
43519;SDS011;46848;51.980;5.918;2023-03-11T13:04:35;2.17;;;0.60;;
43519;SDS011;46848;51.980;5.918;2023-03-11T13:07:28;3.47;;;0.50;;
43519;SDS011;46848;51.980;5.918;2023-03-11T13:16:51;1.73;;;0.40;;
43519;SDS011;46848;51.980;5.918;2023-03-11T13:18:52;2.35;;;0.60;;
43519;SDS011;46848;51.980;5.918;2023-03-11T13:24:38;3.58;;;0.50;;
43519;SDS011;46848;51.980;5.918;2023-03-11T13:27:06;4.22;;;0.60;;
43519;SDS011;46848;51.980;5.918;2023-03-11T13:29:54;3.13;;;0.47;;
43519;SDS011;46848;51.980;5.918;2023-03-11T13:37:47;3.05;;;0.70;;
43519;SDS011;46848;51.980;5.918;2023-03-11T13:40:38;2.30;;;0.60;;
43519;SDS011;46848;51.980;5.918;2023-03-11T13:43:16;2.00;;;0.50;;
43519;SDS011;46848;51.980;5.918;2023-03-11T13:45:56;1.65;;;0.40;;
43519;SDS011;46848;51.980;5.918;2023-03-11T13:48:28;1.67;;;0.70;;
43519;SDS011;46848;51.980;5.918;2023-03-11T13:50:59;0.90;;;0.40;;
43519;SDS011;46848;51.980;5.918;2023-03-11T13:53:36;3.97;;;0.80;;
43519;SDS011;46848;51.980;5.918;2023-03-11T13:56:24;3.42;;;0.77;;
43519;SDS011;46848;51.980;5.918;2023-03-11T13:58:52;1.40;;;0.47;;
43519;SDS011;46848;51.980;5.918;2023-03-11T14:01:19;2.25;;;0.80;;
43519;SDS011;46848;51.980;5.918;2023-03-11T14:03:46;2.25;;;0.47;;
43519;SDS011;46848;51.980;5.918;2023-03-11T14:06:13;2.42;;;0.70;;
43519;SDS011;46848;51.980;5.918;2023-03-11T14:08:41;2.33;;;0.77;;
43519;SDS011;46848;51.980;5.918;2023-03-11T14:13:52;2.00;;;0.60;;
43519;SDS011;46848;51.980;5.918;2023-03-11T14:16:28;2.60;;;0.70;;
43519;SDS011;46848;51.980;5.918;2023-03-11T14:21:41;2.88;;;1.13;;
43519;SDS011;46848;51.980;5.918;2023-03-11T14:24:13;4.55;;;0.90;;
43519;SDS011;46848;51.980;5.918;2023-03-11T14:26:44;2.35;;;0.50;;
43519;SDS011;46848;51.980;5.918;2023-03-11T14:29:19;1.98;;;0.65;;
43519;SDS011;46848;51.980;5.918;2023-03-11T14:31:48;2.40;;;0.95;;
43519;SDS011;46848;51.980;5.918;2023-03-11T14:34:14;1.65;;;0.52;;
43519;SDS011;46848;51.980;5.918;2023-03-11T14:36:42;2.97;;;0.73;;
43519;SDS011;46848;51.980;5.918;2023-03-11T14:39:24;3.58;;;0.60;;
43519;SDS011;46848;51.980;5.918;2023-03-11T14:41:50;4.43;;;0.60;;
43519;SDS011;46848;51.980;5.918;2023-03-11T14:44:20;2.08;;;0.57;;
43519;SDS011;46848;51.980;5.918;2023-03-11T14:46:48;3.20;;;0.85;;
43519;SDS011;46848;51.980;5.918;2023-03-11T14:49:19;2.35;;;0.70;;
43519;SDS011;46848;51.980;5.918;2023-03-11T14:51:54;2.60;;;0.70;;
43519;SDS011;46848;51.980;5.918;2023-03-11T14:54:28;2.15;;;0.82;;
43519;SDS011;46848;51.980;5.918;2023-03-11T14:57:02;3.17;;;0.98;;
43519;SDS011;46848;51.980;5.918;2023-03-11T14:59:33;2.08;;;0.70;;
43519;SDS011;46848;51.980;5.918;2023-03-11T15:05:18;4.43;;;0.80;;
43519;SDS011;46848;51.980;5.918;2023-03-11T15:08:04;1.98;;;0.63;;
43519;SDS011;46848;51.980;5.918;2023-03-11T15:10:31;3.83;;;0.98;;
43519;SDS011;46848;51.980;5.918;2023-03-11T15:16:02;2.47;;;0.80;;
43519;SDS011;46848;51.980;5.918;2023-03-11T15:18:46;2.13;;;0.70;;
43519;SDS011;46848;51.980;5.918;2023-03-11T15:37:14;3.50;;;1.02;;
43519;SDS011;46848;51.980;5.918;2023-03-11T15:39:45;2.22;;;0.70;;
43519;SDS011;46848;51.980;5.918;2023-03-11T15:42:22;3.35;;;0.75;;
43519;SDS011;46848;51.980;5.918;2023-03-11T15:45:20;3.78;;;0.90;;
43519;SDS011;46848;51.980;5.918;2023-03-11T15:48:11;2.05;;;0.70;;
43519;SDS011;46848;51.980;5.918;2023-03-11T15:50:51;2.38;;;0.80;;
43519;SDS011;46848;51.980;5.918;2023-03-11T15:53:28;1.83;;;0.63;;
43519;SDS011;46848;51.980;5.918;2023-03-11T15:56:09;3.10;;;0.90;;
43519;SDS011;46848;51.980;5.918;2023-03-11T16:01:30;1.77;;;0.55;;
43519;SDS011;46848;51.980;5.918;2023-03-11T16:03:56;3.42;;;1.27;;
43519;SDS011;46848;51.980;5.918;2023-03-11T16:06:21;4.60;;;1.00;;
43519;SDS011;46848;51.980;5.918;2023-03-11T16:08:47;1.85;;;0.65;;
43519;SDS011;46848;51.980;5.918;2023-03-11T16:11:14;3.03;;;0.90;;
43519;SDS011;46848;51.980;5.918;2023-03-11T16:13:40;2.38;;;0.60;;
43519;SDS011;46848;51.980;5.918;2023-03-11T16:16:07;5.55;;;1.98;;
43519;SDS011;46848;51.980;5.918;2023-03-11T16:18:41;5.20;;;3.00;;
43519;SDS011;46848;51.980;5.918;2023-03-11T16:21:08;5.95;;;3.22;;
43519;SDS011;46848;51.980;5.918;2023-03-11T16:23:39;4.23;;;2.50;;
43519;SDS011;46848;51.980;5.918;2023-03-11T16:26:05;5.03;;;2.50;;
43519;SDS011;46848;51.980;5.918;2023-03-11T16:28:32;4.50;;;1.60;;
43519;SDS011;46848;51.980;5.918;2023-03-11T16:30:59;5.00;;;1.23;;
43519;SDS011;46848;51.980;5.918;2023-03-11T16:33:25;4.57;;;1.20;;
43519;SDS011;46848;51.980;5.918;2023-03-11T16:35:50;1.60;;;0.57;;
43519;SDS011;46848;51.980;5.918;2023-03-11T16:38:16;4.00;;;0.93;;
43519;SDS011;46848;51.980;5.918;2023-03-11T16:40:43;3.47;;;0.60;;
43519;SDS011;46848;51.980;5.918;2023-03-11T16:43:10;2.23;;;0.97;;